sensor_id;sensor_type;location;lat;lon;timestamp;temperature;humidity
2995;DHT22;35277;49.890;8.222;2024-02-26T00:00:13;19.70;63.50
2995;DHT22;35277;49.890;8.222;2024-02-26T00:02:41;19.70;63.50
2995;DHT22;35277;49.890;8.222;2024-02-26T00:05:09;19.70;63.50
2995;DHT22;35277;49.890;8.222;2024-02-26T00:07:36;19.70;63.50
2995;DHT22;35277;49.890;8.222;2024-02-26T00:10:06;19.70;63.50
2995;DHT22;35277;49.890;8.222;2024-02-26T00:12:34;19.70;63.50
2995;DHT22;35277;49.890;8.222;2024-02-26T00:15:02;19.70;63.50
2995;DHT22;35277;49.890;8.222;2024-02-26T00:17:31;19.70;63.50
2995;DHT22;35277;49.890;8.222;2024-02-26T00:19:59;19.70;63.60
2995;DHT22;35277;49.890;8.222;2024-02-26T00:22:28;19.70;63.50
2995;DHT22;35277;49.890;8.222;2024-02-26T00:24:55;19.70;63.50
2995;DHT22;35277;49.890;8.222;2024-02-26T00:27:23;19.70;63.50
2995;DHT22;35277;49.890;8.222;2024-02-26T00:29:51;19.70;63.60
2995;DHT22;35277;49.890;8.222;2024-02-26T00:32:19;19.70;63.60
2995;DHT22;35277;49.890;8.222;2024-02-26T00:34:48;19.70;63.60
2995;DHT22;35277;49.890;8.222;2024-02-26T00:37:17;19.70;63.60
2995;DHT22;35277;49.890;8.222;2024-02-26T00:39:45;19.70;63.70
2995;DHT22;35277;49.890;8.222;2024-02-26T00:42:13;19.70;63.70
2995;DHT22;35277;49.890;8.222;2024-02-26T00:44:41;19.70;63.60
2995;DHT22;35277;49.890;8.222;2024-02-26T00:47:08;19.70;63.60
2995;DHT22;35277;49.890;8.222;2024-02-26T00:49:37;19.70;63.60
2995;DHT22;35277;49.890;8.222;2024-02-26T00:52:06;19.70;63.60
2995;DHT22;35277;49.890;8.222;2024-02-26T00:54:34;19.70;63.70
2995;DHT22;35277;49.890;8.222;2024-02-26T00:57:02;19.70;63.60
2995;DHT22;35277;49.890;8.222;2024-02-26T00:59:30;19.70;63.70
2995;DHT22;35277;49.890;8.222;2024-02-26T01:01:58;19.70;63.70
2995;DHT22;35277;49.890;8.222;2024-02-26T01:04:28;19.70;63.70
2995;DHT22;35277;49.890;8.222;2024-02-26T01:06:56;19.70;63.70
2995;DHT22;35277;49.890;8.222;2024-02-26T01:09:25;19.70;63.70
2995;DHT22;35277;49.890;8.222;2024-02-26T01:11:53;19.70;63.70
2995;DHT22;35277;49.890;8.222;2024-02-26T01:14:21;19.70;63.70
2995;DHT22;35277;49.890;8.222;2024-02-26T01:16:50;19.70;63.70
2995;DHT22;35277;49.890;8.222;2024-02-26T01:19:17;19.70;63.70
2995;DHT22;35277;49.890;8.222;2024-02-26T01:21:45;19.70;63.70
2995;DHT22;35277;49.890;8.222;2024-02-26T01:24:13;19.70;63.80
2995;DHT22;35277;49.890;8.222;2024-02-26T01:26:43;19.70;63.80
2995;DHT22;35277;49.890;8.222;2024-02-26T01:29:11;19.70;63.80
2995;DHT22;35277;49.890;8.222;2024-02-26T01:31:39;19.70;63.80
2995;DHT22;35277;49.890;8.222;2024-02-26T01:34:07;19.70;63.80
2995;DHT22;35277;49.890;8.222;2024-02-26T01:36:35;19.70;63.80
2995;DHT22;35277;49.890;8.222;2024-02-26T01:39:03;19.70;63.80
2995;DHT22;35277;49.890;8.222;2024-02-26T01:41:31;19.70;63.80
2995;DHT22;35277;49.890;8.222;2024-02-26T01:44:00;19.70;63.80
2995;DHT22;35277;49.890;8.222;2024-02-26T01:46:29;19.70;63.80
2995;DHT22;35277;49.890;8.222;2024-02-26T01:48:57;19.70;63.80
2995;DHT22;35277;49.890;8.222;2024-02-26T01:51:25;19.70;63.80
2995;DHT22;35277;49.890;8.222;2024-02-26T01:53:53;19.70;63.80
2995;DHT22;35277;49.890;8.222;2024-02-26T01:56:22;19.70;63.90
2995;DHT22;35277;49.890;8.222;2024-02-26T01:58:54;19.70;63.90
2995;DHT22;35277;49.890;8.222;2024-02-26T02:01:25;19.70;63.80
2995;DHT22;35277;49.890;8.222;2024-02-26T02:03:55;19.70;63.90
2995;DHT22;35277;49.890;8.222;2024-02-26T02:06:25;19.70;63.90
2995;DHT22;35277;49.890;8.222;2024-02-26T02:08:54;19.70;63.90
2995;DHT22;35277;49.890;8.222;2024-02-26T02:11:22;19.70;63.90
2995;DHT22;35277;49.890;8.222;2024-02-26T02:13:50;19.70;63.90
2995;DHT22;35277;49.890;8.222;2024-02-26T02:16:18;19.70;63.90
2995;DHT22;35277;49.890;8.222;2024-02-26T02:18:47;19.70;64.00
2995;DHT22;35277;49.890;8.222;2024-02-26T02:21:16;19.70;63.90
2995;DHT22;35277;49.890;8.222;2024-02-26T02:23:44;19.70;64.70
2995;DHT22;35277;49.890;8.222;2024-02-26T02:26:13;19.70;63.90
2995;DHT22;35277;49.890;8.222;2024-02-26T02:28:42;19.70;64.00
2995;DHT22;35277;49.890;8.222;2024-02-26T02:31:10;19.70;64.00
2995;DHT22;35277;49.890;8.222;2024-02-26T02:33:38;19.70;64.00
2995;DHT22;35277;49.890;8.222;2024-02-26T02:36:06;19.70;64.00
2995;DHT22;35277;49.890;8.222;2024-02-26T02:38:38;19.70;64.00
2995;DHT22;35277;49.890;8.222;2024-02-26T02:41:06;19.70;64.00
2995;DHT22;35277;49.890;8.222;2024-02-26T02:43:33;19.70;64.00
2995;DHT22;35277;49.890;8.222;2024-02-26T02:46:01;19.70;64.00
2995;DHT22;35277;49.890;8.222;2024-02-26T02:48:29;19.70;64.00
2995;DHT22;35277;49.890;8.222;2024-02-26T02:50:57;19.70;64.00
2995;DHT22;35277;49.890;8.222;2024-02-26T02:53:25;19.70;64.00
2995;DHT22;35277;49.890;8.222;2024-02-26T02:55:54;19.70;64.00
2995;DHT22;35277;49.890;8.222;2024-02-26T02:58:22;19.70;64.00
2995;DHT22;35277;49.890;8.222;2024-02-26T03:00:49;19.70;64.00
2995;DHT22;35277;49.890;8.222;2024-02-26T03:03:17;19.70;64.00
2995;DHT22;35277;49.890;8.222;2024-02-26T03:05:45;19.70;64.00
2995;DHT22;35277;49.890;8.222;2024-02-26T03:08:13;19.70;64.00
2995;DHT22;35277;49.890;8.222;2024-02-26T03:10:41;19.70;64.00
2995;DHT22;35277;49.890;8.222;2024-02-26T03:13:11;19.70;64.00
2995;DHT22;35277;49.890;8.222;2024-02-26T03:15:39;19.70;64.00
2995;DHT22;35277;49.890;8.222;2024-02-26T03:18:07;19.70;64.00
2995;DHT22;35277;49.890;8.222;2024-02-26T03:20:35;19.70;64.10
2995;DHT22;35277;49.890;8.222;2024-02-26T03:23:04;19.70;64.10
2995;DHT22;35277;49.890;8.222;2024-02-26T03:25:31;19.70;64.10
2995;DHT22;35277;49.890;8.222;2024-02-26T03:27:59;19.70;64.10
2995;DHT22;35277;49.890;8.222;2024-02-26T03:30:28;19.70;64.10
2995;DHT22;35277;49.890;8.222;2024-02-26T03:32:56;19.70;64.10
2995;DHT22;35277;49.890;8.222;2024-02-26T03:35:24;19.70;64.10
2995;DHT22;35277;49.890;8.222;2024-02-26T03:37:52;19.70;64.20
2995;DHT22;35277;49.890;8.222;2024-02-26T03:40:19;19.70;64.10
2995;DHT22;35277;49.890;8.222;2024-02-26T03:42:47;19.70;64.20
2995;DHT22;35277;49.890;8.222;2024-02-26T03:45:15;19.70;64.20
2995;DHT22;35277;49.890;8.222;2024-02-26T03:47:44;19.70;64.20
2995;DHT22;35277;49.890;8.222;2024-02-26T03:50:12;19.70;64.20
2995;DHT22;35277;49.890;8.222;2024-02-26T03:52:40;19.70;64.20
2995;DHT22;35277;49.890;8.222;2024-02-26T03:55:08;19.70;64.20
2995;DHT22;35277;49.890;8.222;2024-02-26T03:57:36;19.70;64.20
2995;DHT22;35277;49.890;8.222;2024-02-26T04:00:05;19.70;64.20
2995;DHT22;35277;49.890;8.222;2024-02-26T04:02:39;19.70;65.00
2995;DHT22;35277;49.890;8.222;2024-02-26T04:05:10;19.70;64.20
2995;DHT22;35277;49.890;8.222;2024-02-26T04:07:39;19.70;64.20
2995;DHT22;35277;49.890;8.222;2024-02-26T04:10:09;19.70;64.20
2995;DHT22;35277;49.890;8.222;2024-02-26T04:12:38;19.70;64.20
2995;DHT22;35277;49.890;8.222;2024-02-26T04:15:08;19.70;64.20
2995;DHT22;35277;49.890;8.222;2024-02-26T04:17:36;19.70;64.20
2995;DHT22;35277;49.890;8.222;2024-02-26T04:20:06;19.70;64.20
2995;DHT22;35277;49.890;8.222;2024-02-26T04:22:35;19.70;64.20
2995;DHT22;35277;49.890;8.222;2024-02-26T04:25:04;19.70;64.30
2995;DHT22;35277;49.890;8.222;2024-02-26T04:27:32;19.70;64.30
2995;DHT22;35277;49.890;8.222;2024-02-26T04:29:59;19.70;64.30
2995;DHT22;35277;49.890;8.222;2024-02-26T04:32:27;19.70;64.30
2995;DHT22;35277;49.890;8.222;2024-02-26T04:34:56;19.70;64.30
2995;DHT22;35277;49.890;8.222;2024-02-26T04:37:24;19.70;64.30
2995;DHT22;35277;49.890;8.222;2024-02-26T04:39:59;19.70;64.30
2995;DHT22;35277;49.890;8.222;2024-02-26T04:42:27;19.70;64.30
2995;DHT22;35277;49.890;8.222;2024-02-26T04:44:55;19.60;64.20
2995;DHT22;35277;49.890;8.222;2024-02-26T04:47:23;19.70;64.30
2995;DHT22;35277;49.890;8.222;2024-02-26T04:49:51;19.70;64.30
2995;DHT22;35277;49.890;8.222;2024-02-26T04:52:19;19.70;64.30
2995;DHT22;35277;49.890;8.222;2024-02-26T04:54:47;19.70;64.30
2995;DHT22;35277;49.890;8.222;2024-02-26T04:57:16;19.60;64.20
2995;DHT22;35277;49.890;8.222;2024-02-26T04:59:45;19.60;64.20
2995;DHT22;35277;49.890;8.222;2024-02-26T05:02:13;19.70;64.30
2995;DHT22;35277;49.890;8.222;2024-02-26T05:04:41;19.70;64.40
2995;DHT22;35277;49.890;8.222;2024-02-26T05:07:09;19.60;64.20
2995;DHT22;35277;49.890;8.222;2024-02-26T05:09:37;19.70;64.40
2995;DHT22;35277;49.890;8.222;2024-02-26T05:12:05;19.60;64.30
2995;DHT22;35277;49.890;8.222;2024-02-26T05:14:34;19.60;64.20
2995;DHT22;35277;49.890;8.222;2024-02-26T05:17:02;19.60;64.30
2995;DHT22;35277;49.890;8.222;2024-02-26T05:19:30;19.60;64.20
2995;DHT22;35277;49.890;8.222;2024-02-26T05:21:58;19.60;64.30
2995;DHT22;35277;49.890;8.222;2024-02-26T05:24:26;19.60;64.20
2995;DHT22;35277;49.890;8.222;2024-02-26T05:26:54;19.70;64.30
2995;DHT22;35277;49.890;8.222;2024-02-26T05:29:22;19.60;64.20
2995;DHT22;35277;49.890;8.222;2024-02-26T05:31:51;19.60;64.20
2995;DHT22;35277;49.890;8.222;2024-02-26T05:34:20;19.60;64.20
2995;DHT22;35277;49.890;8.222;2024-02-26T05:36:49;19.60;64.20
2995;DHT22;35277;49.890;8.222;2024-02-26T05:39:17;19.60;64.20
2995;DHT22;35277;49.890;8.222;2024-02-26T05:41:46;19.60;64.20
2995;DHT22;35277;49.890;8.222;2024-02-26T05:44:16;19.60;64.20
2995;DHT22;35277;49.890;8.222;2024-02-26T05:46:44;19.60;64.20
2995;DHT22;35277;49.890;8.222;2024-02-26T05:49:13;19.60;64.20
2995;DHT22;35277;49.890;8.222;2024-02-26T05:51:41;19.60;64.20
2995;DHT22;35277;49.890;8.222;2024-02-26T05:54:09;19.60;64.20
2995;DHT22;35277;49.890;8.222;2024-02-26T05:56:37;19.70;64.20
2995;DHT22;35277;49.890;8.222;2024-02-26T05:59:05;19.60;64.20
2995;DHT22;35277;49.890;8.222;2024-02-26T06:01:33;19.60;64.10
2995;DHT22;35277;49.890;8.222;2024-02-26T06:04:00;19.60;64.20
2995;DHT22;35277;49.890;8.222;2024-02-26T06:06:30;19.60;64.10
2995;DHT22;35277;49.890;8.222;2024-02-26T06:08:58;19.60;64.10
2995;DHT22;35277;49.890;8.222;2024-02-26T06:11:26;19.60;64.10
2995;DHT22;35277;49.890;8.222;2024-02-26T06:13:54;19.60;64.10
2995;DHT22;35277;49.890;8.222;2024-02-26T06:16:22;19.60;64.10
2995;DHT22;35277;49.890;8.222;2024-02-26T06:18:50;19.60;64.10
2995;DHT22;35277;49.890;8.222;2024-02-26T06:21:18;19.60;64.10
2995;DHT22;35277;49.890;8.222;2024-02-26T06:23:47;19.60;64.10
2995;DHT22;35277;49.890;8.222;2024-02-26T06:26:16;19.60;64.10
2995;DHT22;35277;49.890;8.222;2024-02-26T06:28:44;19.60;64.10
2995;DHT22;35277;49.890;8.222;2024-02-26T06:31:12;19.60;64.10
2995;DHT22;35277;49.890;8.222;2024-02-26T06:33:39;19.60;64.10
2995;DHT22;35277;49.890;8.222;2024-02-26T06:36:08;19.60;64.10
2995;DHT22;35277;49.890;8.222;2024-02-26T06:38:35;19.60;64.10
2995;DHT22;35277;49.890;8.222;2024-02-26T06:41:05;19.60;64.10
2995;DHT22;35277;49.890;8.222;2024-02-26T06:43:32;19.60;64.10
2995;DHT22;35277;49.890;8.222;2024-02-26T06:46:00;19.60;64.10
2995;DHT22;35277;49.890;8.222;2024-02-26T06:48:29;19.60;64.10
2995;DHT22;35277;49.890;8.222;2024-02-26T06:50:57;19.60;64.10
2995;DHT22;35277;49.890;8.222;2024-02-26T06:53:25;19.60;64.10
2995;DHT22;35277;49.890;8.222;2024-02-26T06:55:52;19.60;64.10
2995;DHT22;35277;49.890;8.222;2024-02-26T06:58:22;19.60;64.10
2995;DHT22;35277;49.890;8.222;2024-02-26T07:00:50;19.60;64.10
2995;DHT22;35277;49.890;8.222;2024-02-26T07:03:17;19.60;64.10
2995;DHT22;35277;49.890;8.222;2024-02-26T07:05:45;19.60;64.10
2995;DHT22;35277;49.890;8.222;2024-02-26T07:08:14;19.60;64.10
2995;DHT22;35277;49.890;8.222;2024-02-26T07:10:41;19.60;64.10
2995;DHT22;35277;49.890;8.222;2024-02-26T07:13:10;19.60;64.10
2995;DHT22;35277;49.890;8.222;2024-02-26T07:15:39;19.60;64.10
2995;DHT22;35277;49.890;8.222;2024-02-26T07:18:07;19.60;64.00
2995;DHT22;35277;49.890;8.222;2024-02-26T07:20:35;19.60;64.10
2995;DHT22;35277;49.890;8.222;2024-02-26T07:23:03;19.60;64.00
2995;DHT22;35277;49.890;8.222;2024-02-26T07:25:31;19.60;64.10
2995;DHT22;35277;49.890;8.222;2024-02-26T07:27:59;19.60;64.10
2995;DHT22;35277;49.890;8.222;2024-02-26T07:30:27;19.60;64.00
2995;DHT22;35277;49.890;8.222;2024-02-26T07:32:56;19.60;64.10
2995;DHT22;35277;49.890;8.222;2024-02-26T07:35:24;19.60;64.10
2995;DHT22;35277;49.890;8.222;2024-02-26T07:37:54;19.60;64.00
2995;DHT22;35277;49.890;8.222;2024-02-26T07:40:21;19.60;64.00
2995;DHT22;35277;49.890;8.222;2024-02-26T07:42:49;19.60;64.00
2995;DHT22;35277;49.890;8.222;2024-02-26T07:45:17;19.60;64.00
2995;DHT22;35277;49.890;8.222;2024-02-26T07:47:46;19.60;64.00
2995;DHT22;35277;49.890;8.222;2024-02-26T07:50:15;19.60;64.00
2995;DHT22;35277;49.890;8.222;2024-02-26T07:52:44;19.60;64.00
2995;DHT22;35277;49.890;8.222;2024-02-26T07:55:12;19.60;64.00
2995;DHT22;35277;49.890;8.222;2024-02-26T07:57:43;19.60;64.10
2995;DHT22;35277;49.890;8.222;2024-02-26T08:00:12;19.60;64.00
2995;DHT22;35277;49.890;8.222;2024-02-26T08:02:44;19.60;64.00
2995;DHT22;35277;49.890;8.222;2024-02-26T08:05:11;19.60;64.00
2995;DHT22;35277;49.890;8.222;2024-02-26T08:07:40;19.60;64.00
2995;DHT22;35277;49.890;8.222;2024-02-26T08:10:09;19.60;64.10
2995;DHT22;35277;49.890;8.222;2024-02-26T08:12:37;19.60;64.00
2995;DHT22;35277;49.890;8.222;2024-02-26T08:15:06;19.60;64.00
2995;DHT22;35277;49.890;8.222;2024-02-26T08:17:34;19.60;64.00
2995;DHT22;35277;49.890;8.222;2024-02-26T08:20:03;19.60;64.00
2995;DHT22;35277;49.890;8.222;2024-02-26T08:22:31;19.60;64.00
2995;DHT22;35277;49.890;8.222;2024-02-26T08:25:01;19.60;64.00
2995;DHT22;35277;49.890;8.222;2024-02-26T08:27:33;19.60;64.10
2995;DHT22;35277;49.890;8.222;2024-02-26T08:30:01;19.60;64.00
2995;DHT22;35277;49.890;8.222;2024-02-26T08:32:30;19.60;64.00
2995;DHT22;35277;49.890;8.222;2024-02-26T08:34:57;19.60;64.00
2995;DHT22;35277;49.890;8.222;2024-02-26T08:37:26;19.60;64.00
2995;DHT22;35277;49.890;8.222;2024-02-26T08:39:53;19.60;64.00
2995;DHT22;35277;49.890;8.222;2024-02-26T08:42:23;19.60;64.00
2995;DHT22;35277;49.890;8.222;2024-02-26T08:44:51;19.60;64.00
2995;DHT22;35277;49.890;8.222;2024-02-26T08:47:21;19.60;64.00
2995;DHT22;35277;49.890;8.222;2024-02-26T08:49:49;19.60;64.10
2995;DHT22;35277;49.890;8.222;2024-02-26T08:52:17;19.60;64.10
2995;DHT22;35277;49.890;8.222;2024-02-26T08:54:44;19.60;64.10
2995;DHT22;35277;49.890;8.222;2024-02-26T08:57:12;19.60;64.10
2995;DHT22;35277;49.890;8.222;2024-02-26T08:59:41;19.60;64.10
2995;DHT22;35277;49.890;8.222;2024-02-26T09:02:09;19.60;64.10
2995;DHT22;35277;49.890;8.222;2024-02-26T09:04:37;19.60;64.10
2995;DHT22;35277;49.890;8.222;2024-02-26T09:07:05;19.60;64.10
2995;DHT22;35277;49.890;8.222;2024-02-26T09:09:33;19.60;64.10
2995;DHT22;35277;49.890;8.222;2024-02-26T09:12:01;19.60;64.10
2995;DHT22;35277;49.890;8.222;2024-02-26T09:14:29;19.60;64.10
2995;DHT22;35277;49.890;8.222;2024-02-26T09:16:58;19.60;64.10
2995;DHT22;35277;49.890;8.222;2024-02-26T09:19:26;19.60;64.10
2995;DHT22;35277;49.890;8.222;2024-02-26T09:21:55;19.60;64.10
2995;DHT22;35277;49.890;8.222;2024-02-26T09:24:25;19.60;64.10
2995;DHT22;35277;49.890;8.222;2024-02-26T09:26:53;19.60;64.10
2995;DHT22;35277;49.890;8.222;2024-02-26T09:29:21;19.70;64.20
2995;DHT22;35277;49.890;8.222;2024-02-26T09:31:49;19.60;64.10
2995;DHT22;35277;49.890;8.222;2024-02-26T09:34:18;19.60;64.10
2995;DHT22;35277;49.890;8.222;2024-02-26T09:36:46;19.60;64.10
2995;DHT22;35277;49.890;8.222;2024-02-26T09:39:14;19.60;64.10
2995;DHT22;35277;49.890;8.222;2024-02-26T09:41:47;19.60;64.10
2995;DHT22;35277;49.890;8.222;2024-02-26T09:44:18;19.60;64.10
2995;DHT22;35277;49.890;8.222;2024-02-26T09:46:47;19.60;64.10
2995;DHT22;35277;49.890;8.222;2024-02-26T09:49:15;19.60;64.10
2995;DHT22;35277;49.890;8.222;2024-02-26T09:51:45;19.60;64.10
2995;DHT22;35277;49.890;8.222;2024-02-26T09:54:15;19.70;64.20
2995;DHT22;35277;49.890;8.222;2024-02-26T09:56:45;19.60;64.10
2995;DHT22;35277;49.890;8.222;2024-02-26T09:59:29;19.70;64.20
2995;DHT22;35277;49.890;8.222;2024-02-26T10:02:09;19.60;64.10
2995;DHT22;35277;49.890;8.222;2024-02-26T10:04:39;19.70;64.20
2995;DHT22;35277;49.890;8.222;2024-02-26T10:07:10;19.70;64.20
2995;DHT22;35277;49.890;8.222;2024-02-26T10:09:39;19.70;64.30
2995;DHT22;35277;49.890;8.222;2024-02-26T10:12:10;19.70;64.20
2995;DHT22;35277;49.890;8.222;2024-02-26T10:14:38;19.70;64.30
2995;DHT22;35277;49.890;8.222;2024-02-26T10:17:07;19.70;64.20
2995;DHT22;35277;49.890;8.222;2024-02-26T10:19:36;19.70;64.20
2995;DHT22;35277;49.890;8.222;2024-02-26T10:22:05;19.70;64.30
2995;DHT22;35277;49.890;8.222;2024-02-26T10:24:34;19.70;64.30
2995;DHT22;35277;49.890;8.222;2024-02-26T10:27:03;19.70;64.30
2995;DHT22;35277;49.890;8.222;2024-02-26T10:29:32;19.70;64.30
2995;DHT22;35277;49.890;8.222;2024-02-26T10:32:00;19.70;64.30
2995;DHT22;35277;49.890;8.222;2024-02-26T10:34:28;19.70;64.30
2995;DHT22;35277;49.890;8.222;2024-02-26T10:36:56;19.70;64.30
2995;DHT22;35277;49.890;8.222;2024-02-26T10:39:24;19.70;64.50
2995;DHT22;35277;49.890;8.222;2024-02-26T10:41:53;19.70;64.30
2995;DHT22;35277;49.890;8.222;2024-02-26T10:44:21;19.70;64.30
2995;DHT22;35277;49.890;8.222;2024-02-26T10:46:49;19.70;64.30
2995;DHT22;35277;49.890;8.222;2024-02-26T10:49:17;19.70;64.30
2995;DHT22;35277;49.890;8.222;2024-02-26T10:51:56;19.70;64.30
2995;DHT22;35277;49.890;8.222;2024-02-26T10:54:26;19.70;64.30
2995;DHT22;35277;49.890;8.222;2024-02-26T10:56:57;19.70;64.40
2995;DHT22;35277;49.890;8.222;2024-02-26T10:59:26;19.70;64.30
2995;DHT22;35277;49.890;8.222;2024-02-26T11:01:55;19.70;64.40
2995;DHT22;35277;49.890;8.222;2024-02-26T11:04:23;19.70;64.30
2995;DHT22;35277;49.890;8.222;2024-02-26T11:06:54;19.70;64.40
2995;DHT22;35277;49.890;8.222;2024-02-26T11:09:23;19.70;64.30
2995;DHT22;35277;49.890;8.222;2024-02-26T11:11:52;19.70;64.30
2995;DHT22;35277;49.890;8.222;2024-02-26T11:14:24;19.70;64.40
2995;DHT22;35277;49.890;8.222;2024-02-26T11:16:53;19.70;64.30
2995;DHT22;35277;49.890;8.222;2024-02-26T11:19:22;19.70;64.40
2995;DHT22;35277;49.890;8.222;2024-02-26T11:21:52;19.70;64.40
2995;DHT22;35277;49.890;8.222;2024-02-26T11:24:20;19.70;64.30
2995;DHT22;35277;49.890;8.222;2024-02-26T11:26:52;19.70;64.30
2995;DHT22;35277;49.890;8.222;2024-02-26T11:29:38;19.70;64.30
2995;DHT22;35277;49.890;8.222;2024-02-26T11:32:07;19.70;64.40
2995;DHT22;35277;49.890;8.222;2024-02-26T11:34:35;19.70;64.40
2995;DHT22;35277;49.890;8.222;2024-02-26T11:37:10;19.70;64.40
2995;DHT22;35277;49.890;8.222;2024-02-26T11:39:40;19.70;64.40
2995;DHT22;35277;49.890;8.222;2024-02-26T11:42:08;19.70;64.40
2995;DHT22;35277;49.890;8.222;2024-02-26T11:44:39;19.70;64.40
2995;DHT22;35277;49.890;8.222;2024-02-26T11:47:11;19.70;64.40
2995;DHT22;35277;49.890;8.222;2024-02-26T11:49:39;19.70;64.40
2995;DHT22;35277;49.890;8.222;2024-02-26T11:52:08;19.70;64.40
2995;DHT22;35277;49.890;8.222;2024-02-26T11:54:40;19.70;64.50
2995;DHT22;35277;49.890;8.222;2024-02-26T11:57:20;19.70;64.40
2995;DHT22;35277;49.890;8.222;2024-02-26T11:59:49;19.70;64.50
2995;DHT22;35277;49.890;8.222;2024-02-26T12:02:39;19.70;64.40
2995;DHT22;35277;49.890;8.222;2024-02-26T12:05:11;19.70;64.50
2995;DHT22;35277;49.890;8.222;2024-02-26T12:07:42;19.70;64.50
2995;DHT22;35277;49.890;8.222;2024-02-26T12:10:23;19.70;64.50
2995;DHT22;35277;49.890;8.222;2024-02-26T12:12:59;19.70;64.50
2995;DHT22;35277;49.890;8.222;2024-02-26T12:15:33;19.70;64.50
2995;DHT22;35277;49.890;8.222;2024-02-26T12:18:03;19.80;64.60
2995;DHT22;35277;49.890;8.222;2024-02-26T12:20:32;19.70;64.50
2995;DHT22;35277;49.890;8.222;2024-02-26T12:23:01;19.80;64.60
2995;DHT22;35277;49.890;8.222;2024-02-26T12:25:30;19.80;64.60
2995;DHT22;35277;49.890;8.222;2024-02-26T12:27:59;19.80;64.60
2995;DHT22;35277;49.890;8.222;2024-02-26T12:30:27;19.80;64.60
2995;DHT22;35277;49.890;8.222;2024-02-26T12:33:01;19.80;64.60
2995;DHT22;35277;49.890;8.222;2024-02-26T12:35:29;19.80;64.60
2995;DHT22;35277;49.890;8.222;2024-02-26T12:37:58;19.80;64.60
2995;DHT22;35277;49.890;8.222;2024-02-26T12:40:26;19.80;64.60
2995;DHT22;35277;49.890;8.222;2024-02-26T12:42:58;19.80;64.60
2995;DHT22;35277;49.890;8.222;2024-02-26T12:45:25;19.80;64.70
2995;DHT22;35277;49.890;8.222;2024-02-26T12:47:55;19.80;64.60
2995;DHT22;35277;49.890;8.222;2024-02-26T12:50:25;19.80;64.60
2995;DHT22;35277;49.890;8.222;2024-02-26T12:52:54;19.80;64.60
2995;DHT22;35277;49.890;8.222;2024-02-26T12:55:22;19.80;64.60
2995;DHT22;35277;49.890;8.222;2024-02-26T12:57:50;19.90;64.70
2995;DHT22;35277;49.890;8.222;2024-02-26T13:00:20;19.90;64.70
2995;DHT22;35277;49.890;8.222;2024-02-26T13:02:49;19.90;65.50
2995;DHT22;35277;49.890;8.222;2024-02-26T13:05:19;19.90;64.70
2995;DHT22;35277;49.890;8.222;2024-02-26T13:07:48;19.90;64.70
2995;DHT22;35277;49.890;8.222;2024-02-26T13:10:17;19.90;64.70
2995;DHT22;35277;49.890;8.222;2024-02-26T13:12:48;19.90;64.70
2995;DHT22;35277;49.890;8.222;2024-02-26T13:15:18;19.90;64.80
2995;DHT22;35277;49.890;8.222;2024-02-26T13:17:47;19.90;64.70
2995;DHT22;35277;49.890;8.222;2024-02-26T13:20:25;19.90;64.70
2995;DHT22;35277;49.890;8.222;2024-02-26T13:23:01;19.90;64.80
2995;DHT22;35277;49.890;8.222;2024-02-26T13:25:29;19.90;64.80
2995;DHT22;35277;49.890;8.222;2024-02-26T13:28:06;19.90;64.80
2995;DHT22;35277;49.890;8.222;2024-02-26T13:30:34;19.90;64.80
2995;DHT22;35277;49.890;8.222;2024-02-26T13:33:09;19.90;64.80
2995;DHT22;35277;49.890;8.222;2024-02-26T13:35:37;20.00;64.90
2995;DHT22;35277;49.890;8.222;2024-02-26T13:38:07;20.00;64.90
2995;DHT22;35277;49.890;8.222;2024-02-26T13:40:35;20.00;64.90
2995;DHT22;35277;49.890;8.222;2024-02-26T13:43:04;20.00;64.80
2995;DHT22;35277;49.890;8.222;2024-02-26T13:45:34;19.90;64.80
2995;DHT22;35277;49.890;8.222;2024-02-26T13:48:06;20.00;64.90
2995;DHT22;35277;49.890;8.222;2024-02-26T13:50:37;19.90;64.80
2995;DHT22;35277;49.890;8.222;2024-02-26T13:53:06;19.90;64.80
2995;DHT22;35277;49.890;8.222;2024-02-26T13:55:34;19.90;64.80
2995;DHT22;35277;49.890;8.222;2024-02-26T13:58:03;19.90;64.80
2995;DHT22;35277;49.890;8.222;2024-02-26T14:00:30;19.90;64.80
2995;DHT22;35277;49.890;8.222;2024-02-26T14:03:01;19.90;64.80
2995;DHT22;35277;49.890;8.222;2024-02-26T14:05:30;19.90;64.80
2995;DHT22;35277;49.890;8.222;2024-02-26T14:07:58;19.90;64.80
2995;DHT22;35277;49.890;8.222;2024-02-26T14:10:27;19.90;64.90
2995;DHT22;35277;49.890;8.222;2024-02-26T14:12:55;19.90;64.90
2995;DHT22;35277;49.890;8.222;2024-02-26T14:15:23;19.90;64.90
2995;DHT22;35277;49.890;8.222;2024-02-26T14:17:52;19.90;64.90
2995;DHT22;35277;49.890;8.222;2024-02-26T14:20:23;19.90;64.90
2995;DHT22;35277;49.890;8.222;2024-02-26T14:22:51;19.90;64.90
2995;DHT22;35277;49.890;8.222;2024-02-26T14:25:21;19.90;64.90
2995;DHT22;35277;49.890;8.222;2024-02-26T14:27:50;19.90;64.90
2995;DHT22;35277;49.890;8.222;2024-02-26T14:30:18;19.90;64.90
2995;DHT22;35277;49.890;8.222;2024-02-26T14:32:46;19.90;64.90
2995;DHT22;35277;49.890;8.222;2024-02-26T14:35:14;19.90;64.90
2995;DHT22;35277;49.890;8.222;2024-02-26T14:37:43;19.90;64.90
2995;DHT22;35277;49.890;8.222;2024-02-26T14:40:14;19.90;65.00
2995;DHT22;35277;49.890;8.222;2024-02-26T14:42:42;19.90;65.00
2995;DHT22;35277;49.890;8.222;2024-02-26T14:45:11;19.90;65.00
2995;DHT22;35277;49.890;8.222;2024-02-26T14:47:39;19.90;65.00
2995;DHT22;35277;49.890;8.222;2024-02-26T14:50:07;19.90;65.00
2995;DHT22;35277;49.890;8.222;2024-02-26T14:52:35;19.90;65.00
2995;DHT22;35277;49.890;8.222;2024-02-26T14:55:04;19.90;65.00
2995;DHT22;35277;49.890;8.222;2024-02-26T14:57:32;19.90;65.10
2995;DHT22;35277;49.890;8.222;2024-02-26T15:00:00;19.90;65.00
2995;DHT22;35277;49.890;8.222;2024-02-26T15:02:31;19.90;65.10
2995;DHT22;35277;49.890;8.222;2024-02-26T15:04:59;19.90;65.00
2995;DHT22;35277;49.890;8.222;2024-02-26T15:07:26;19.90;65.00
2995;DHT22;35277;49.890;8.222;2024-02-26T15:09:54;19.90;65.00
2995;DHT22;35277;49.890;8.222;2024-02-26T15:12:23;19.90;65.00
2995;DHT22;35277;49.890;8.222;2024-02-26T15:14:58;19.90;65.00
2995;DHT22;35277;49.890;8.222;2024-02-26T15:17:27;19.90;65.10
2995;DHT22;35277;49.890;8.222;2024-02-26T15:19:56;19.90;65.00
2995;DHT22;35277;49.890;8.222;2024-02-26T15:22:25;19.80;65.00
2995;DHT22;35277;49.890;8.222;2024-02-26T15:24:53;19.80;65.00
2995;DHT22;35277;49.890;8.222;2024-02-26T15:27:21;19.80;65.00
2995;DHT22;35277;49.890;8.222;2024-02-26T15:29:49;19.80;65.00
2995;DHT22;35277;49.890;8.222;2024-02-26T15:32:22;19.80;65.00
2995;DHT22;35277;49.890;8.222;2024-02-26T15:34:51;19.80;65.00
2995;DHT22;35277;49.890;8.222;2024-02-26T15:37:20;19.80;65.00
2995;DHT22;35277;49.890;8.222;2024-02-26T15:39:48;19.80;65.00
2995;DHT22;35277;49.890;8.222;2024-02-26T15:42:16;19.80;65.00
2995;DHT22;35277;49.890;8.222;2024-02-26T15:44:44;19.80;65.00
2995;DHT22;35277;49.890;8.222;2024-02-26T15:47:12;19.80;65.00
2995;DHT22;35277;49.890;8.222;2024-02-26T15:49:40;19.80;65.10
2995;DHT22;35277;49.890;8.222;2024-02-26T15:52:08;19.80;65.10
2995;DHT22;35277;49.890;8.222;2024-02-26T15:54:39;19.80;65.10